createdAt,value
2023-01-02T00:03:24.590Z,5.30
2023-01-02T00:08:26.626Z,5.40
2023-01-02T00:13:28.612Z,5.40
2023-01-02T00:18:40.108Z,5.50
2023-01-02T00:23:41.961Z,5.50
2023-01-02T00:28:43.893Z,5.60
2023-01-02T00:33:45.919Z,5.80
2023-01-02T00:38:48.055Z,5.90
2023-01-02T00:43:49.939Z,6.00
2023-01-02T00:48:51.843Z,6.10
2023-01-02T00:53:53.671Z,6.30
2023-01-02T00:58:55.581Z,6.40
2023-01-02T01:03:57.460Z,6.30
2023-01-02T01:08:59.530Z,6.40
2023-01-02T01:14:01.348Z,6.40
2023-01-02T01:19:03.425Z,6.40
2023-01-02T01:24:05.514Z,6.40
2023-01-02T01:29:07.434Z,6.50
2023-01-02T01:34:11.809Z,6.50
2023-01-02T01:39:13.731Z,6.50
2023-01-02T01:44:40.574Z,6.60
2023-01-02T01:49:42.617Z,6.70
2023-01-02T01:54:57.066Z,6.80
2023-01-02T01:59:59.158Z,6.80
2023-01-02T02:05:02.797Z,6.80
2023-01-02T02:10:10.223Z,6.90
2023-01-02T02:15:15.916Z,6.80
2023-01-02T02:20:38.294Z,6.80
2023-01-02T02:25:51.990Z,6.80
2023-01-02T02:30:57.425Z,6.80
2023-01-02T02:36:04.983Z,6.80
2023-01-02T02:41:31.659Z,6.80
2023-01-02T02:46:48.364Z,6.90
2023-01-02T02:52:06.724Z,6.90
2023-01-02T02:57:09.159Z,6.90
2023-01-02T03:02:15.671Z,6.80
2023-01-02T03:07:32.879Z,6.80
2023-01-02T03:12:49.458Z,6.80
2023-01-02T03:18:42.994Z,6.80
2023-01-02T03:23:48.819Z,6.80
2023-01-02T03:28:54.512Z,6.70
2023-01-02T03:34:13.721Z,6.70
2023-01-02T03:39:17.704Z,6.70
2023-01-02T03:44:21.690Z,6.70
2023-01-02T03:49:32.407Z,6.70
2023-01-02T03:54:34.390Z,6.60
2023-01-02T03:59:36.179Z,6.60
2023-01-02T04:04:52.994Z,6.60
2023-01-02T04:09:56.059Z,6.60
2023-01-02T04:15:04.077Z,6.60
2023-01-02T04:20:09.893Z,6.60
2023-01-02T04:25:14.696Z,6.60
2023-01-02T04:30:16.560Z,6.60
2023-01-02T04:35:21.808Z,6.60
2023-01-02T04:40:37.671Z,6.60
2023-01-02T04:45:39.566Z,6.60
2023-01-02T04:50:41.392Z,6.60
2023-01-02T04:55:43.212Z,6.50
2023-01-02T05:00:45.021Z,6.50
2023-01-02T05:05:47.138Z,6.50
2023-01-02T05:10:48.985Z,6.50
2023-01-02T05:15:56.999Z,6.50
2023-01-02T05:21:29.727Z,6.40
2023-01-02T05:26:32.973Z,6.40
2023-01-02T05:31:34.916Z,6.40
2023-01-02T05:36:36.814Z,6.40
2023-01-02T05:41:41.400Z,6.40
2023-01-02T05:46:43.284Z,6.40
2023-01-02T05:51:45.163Z,6.40
2023-01-02T05:56:46.981Z,6.40
2023-01-02T06:01:48.936Z,6.30
2023-01-02T06:06:51.534Z,6.30
2023-01-02T06:11:53.423Z,6.30
2023-01-02T06:16:55.256Z,6.30
2023-01-02T06:21:57.277Z,6.30
2023-01-02T06:26:59.409Z,6.20
2023-01-02T06:32:01.258Z,6.20
2023-01-02T06:37:09.466Z,6.20
2023-01-02T06:42:12.048Z,6.10
2023-01-02T06:47:14.181Z,6.10
2023-01-02T06:52:16.002Z,6.10
2023-01-02T06:57:17.821Z,6.00
2023-01-02T07:02:19.740Z,6.00
2023-01-02T07:07:21.689Z,6.00
2023-01-02T07:12:23.524Z,6.00
2023-01-02T07:17:25.505Z,5.90
2023-01-02T07:22:27.757Z,5.90
2023-01-02T07:27:32.749Z,5.90
2023-01-02T07:32:34.594Z,5.90
2023-01-02T07:37:36.537Z,5.90
2023-01-02T07:42:38.399Z,5.90
2023-01-02T07:47:40.233Z,5.90
2023-01-02T07:52:45.211Z,5.90
2023-01-02T07:57:48.236Z,5.90
2023-01-02T08:02:52.842Z,5.80
2023-01-02T08:07:54.677Z,5.70
2023-01-02T08:12:57.408Z,5.70
2023-01-02T08:17:59.703Z,5.70
2023-01-02T08:23:01.523Z,5.60
2023-01-02T08:28:03.477Z,5.60
2023-01-02T08:33:05.310Z,5.60
2023-01-02T08:38:07.218Z,5.60
2023-01-02T08:43:09.275Z,5.60
2023-01-02T08:48:20.372Z,5.70
2023-01-02T08:53:23.464Z,5.60
2023-01-02T08:58:25.643Z,5.70
2023-01-02T09:03:27.630Z,5.70
2023-01-02T09:08:29.473Z,5.70
2023-01-02T09:13:32.393Z,5.70
2023-01-02T09:18:34.630Z,5.70
2023-01-02T09:23:36.597Z,5.70
2023-01-02T09:28:38.639Z,5.70
2023-01-02T09:33:43.066Z,5.70
2023-01-02T09:38:51.141Z,5.70
2023-01-02T09:43:57.701Z,5.70
2023-01-02T09:49:00.773Z,5.70
2023-01-02T09:54:03.681Z,5.70
2023-01-02T09:59:27.354Z,5.70
2023-01-02T10:04:29.870Z,5.70
2023-01-02T10:09:46.006Z,5.80
2023-01-02T10:14:57.091Z,5.70
2023-01-02T10:20:04.104Z,5.70
2023-01-02T10:25:19.559Z,5.70
2023-01-02T10:30:27.972Z,5.70
2023-01-02T10:35:36.411Z,5.70
2023-01-02T10:40:42.225Z,5.80
2023-01-02T10:45:44.113Z,5.90
2023-01-02T10:50:54.897Z,5.80
2023-01-02T10:55:56.760Z,5.90
2023-01-02T11:01:18.434Z,6.00
2023-01-02T11:06:27.582Z,6.00
2023-01-02T11:11:32.676Z,6.10
2023-01-02T11:16:38.483Z,6.10
2023-01-02T11:21:41.551Z,6.10
2023-01-02T11:26:45.128Z,6.10
2023-01-02T11:31:57.160Z,6.10
2023-01-02T11:37:11.692Z,6.20
2023-01-02T11:42:41.049Z,6.20
2023-01-02T11:47:49.321Z,6.20
2023-01-02T11:53:15.044Z,6.30
2023-01-02T11:58:45.036Z,6.20
2023-01-02T12:03:47.166Z,6.20
2023-01-02T12:09:20.828Z,6.20
2023-01-02T12:14:28.417Z,6.20
2023-01-02T12:19:33.163Z,6.10
2023-01-02T12:24:59.101Z,6.10
2023-01-02T12:30:12.795Z,6.10
2023-01-02T12:35:41.190Z,6.10
2023-01-02T12:41:04.755Z,6.10
2023-01-02T12:46:24.947Z,6.10
2023-01-02T12:51:47.819Z,6.10
2023-01-02T12:57:08.280Z,6.10
2023-01-02T13:02:43.133Z,6.10
2023-01-02T13:07:52.216Z,6.10
2023-01-02T13:12:56.588Z,6.10
2023-01-02T13:18:31.147Z,6.10
2023-01-02T13:23:43.424Z,6.10
2023-01-02T13:29:16.622Z,6.10
2023-01-02T13:34:25.795Z,6.10
2023-01-02T13:39:47.433Z,6.00
2023-01-02T13:44:52.843Z,6.00
2023-01-02T13:50:08.750Z,6.10
2023-01-02T13:55:22.109Z,6.10
2023-01-02T14:00:33.604Z,6.10
2023-01-02T14:05:57.865Z,6.00
2023-01-02T14:11:05.397Z,6.00
2023-01-02T14:16:23.509Z,6.00
2023-01-02T14:21:32.977Z,6.00
2023-01-02T14:26:36.156Z,6.00
2023-01-02T14:31:38.420Z,6.00
2023-01-02T14:36:43.309Z,5.90
2023-01-02T14:42:06.809Z,5.90
2023-01-02T14:47:14.685Z,5.90
2023-01-02T14:52:22.863Z,5.90
2023-01-02T14:57:33.000Z,5.90
2023-01-02T15:02:40.275Z,5.90
2023-01-02T15:07:51.334Z,5.90
2023-01-02T15:13:07.161Z,5.90
2023-01-02T15:18:20.194Z,5.90
2023-01-02T15:23:26.919Z,5.90
2023-01-02T15:28:33.614Z,5.90
2023-01-02T15:33:35.647Z,5.90
2023-01-02T15:38:37.580Z,6.00
2023-01-02T15:43:57.927Z,5.90
2023-01-02T15:49:02.958Z,6.00
2023-01-02T15:54:05.232Z,6.00
2023-01-02T15:59:30.542Z,5.90
2023-01-02T16:04:33.654Z,5.90
2023-01-02T16:09:35.546Z,6.00
2023-01-02T16:14:50.641Z,6.00
2023-01-02T16:19:58.850Z,6.00
2023-01-02T16:25:08.178Z,6.00
2023-01-02T16:30:29.922Z,6.00
2023-01-02T16:35:34.413Z,6.00
2023-01-02T16:41:00.269Z,6.00
2023-01-02T16:46:03.913Z,6.10
2023-01-02T16:51:06.924Z,6.10
2023-01-02T16:56:11.020Z,6.10
2023-01-02T17:01:14.938Z,6.10
2023-01-02T17:06:18.715Z,6.00
2023-01-02T17:11:23.954Z,6.10
2023-01-02T17:16:25.929Z,6.10
2023-01-02T17:21:32.750Z,6.10
2023-01-02T17:26:35.231Z,6.10
2023-01-02T17:31:37.161Z,6.10
2023-01-02T17:36:39.146Z,6.10
2023-01-02T17:41:41.031Z,6.20
2023-01-02T17:47:15.310Z,6.20
2023-01-02T17:52:07.655Z,6.20
2023-01-02T17:57:11.044Z,6.20
2023-01-02T18:02:15.625Z,6.20
2023-01-02T18:07:17.589Z,6.20
2023-01-02T18:12:19.544Z,6.30
2023-01-02T18:17:30.052Z,6.30
2023-01-02T18:22:32.405Z,6.30
2023-01-02T18:27:35.492Z,6.30
2023-01-02T18:32:39.667Z,6.40
2023-01-02T18:37:44.824Z,6.30
2023-01-02T18:42:55.566Z,6.30
2023-01-02T18:47:58.246Z,6.20
2023-01-02T18:53:22.808Z,6.00
2023-01-02T18:58:42.252Z,6.00
2023-01-02T19:03:45.989Z,5.90
2023-01-02T19:08:47.822Z,5.80
2023-01-02T19:13:52.584Z,5.70
2023-01-02T19:18:58.644Z,5.70
2023-01-02T19:24:11.648Z,5.60
2023-01-02T19:29:26.513Z,5.60
2023-01-02T19:34:59.686Z,5.60
2023-01-02T19:40:06.367Z,5.50
2023-01-02T19:45:15.412Z,5.50
2023-01-02T19:50:23.105Z,5.50
2023-01-02T19:55:24.953Z,5.50
2023-01-02T20:00:27.033Z,5.50
2023-01-02T20:05:30.078Z,5.50
2023-01-02T20:10:31.915Z,5.50
2023-01-02T20:15:33.822Z,5.40
2023-01-02T20:20:36.404Z,5.40
2023-01-02T20:25:38.218Z,5.40
2023-01-02T20:30:40.121Z,5.50
2023-01-02T20:35:43.040Z,5.40
2023-01-02T20:40:45.039Z,5.40
2023-01-02T20:45:46.857Z,5.40
2023-01-02T20:50:48.692Z,5.40
2023-01-02T20:55:50.629Z,5.40
2023-01-02T21:00:52.611Z,5.30
2023-01-02T21:05:54.502Z,5.30
2023-01-02T21:10:56.647Z,5.30
2023-01-02T21:15:58.983Z,5.30
2023-01-02T21:21:04.698Z,5.30
2023-01-02T21:26:08.534Z,5.30
2023-01-02T21:31:11.396Z,5.30
2023-01-02T21:36:15.452Z,5.30
2023-01-02T21:41:37.580Z,5.30
2023-01-02T21:46:39.453Z,5.40
2023-01-02T21:51:41.300Z,5.30
2023-01-02T21:56:43.196Z,5.30
2023-01-02T22:01:45.252Z,5.30
2023-01-02T22:07:29.471Z,5.30
2023-01-02T22:12:09.120Z,5.30
2023-01-02T22:17:11.075Z,5.20
2023-01-02T22:22:12.935Z,5.20
2023-01-02T22:27:17.479Z,5.20
2023-01-02T22:32:19.309Z,5.20
2023-01-02T22:37:22.878Z,5.20
2023-01-02T22:43:02.121Z,5.20
2023-01-02T22:48:07.989Z,5.20
2023-01-02T22:53:23.979Z,5.20
2023-01-02T22:58:25.791Z,5.20
2023-01-02T23:03:29.691Z,5.20
2023-01-02T23:08:31.615Z,5.20
2023-01-02T23:13:37.584Z,5.20
2023-01-02T23:18:58.711Z,5.20
2023-01-02T23:24:01.231Z,5.10
2023-01-02T23:29:07.982Z,5.10
2023-01-02T23:34:17.451Z,5.10
2023-01-02T23:39:21.735Z,5.00
2023-01-02T23:44:29.011Z,5.00
2023-01-02T23:49:30.831Z,5.00
2023-01-02T23:54:32.774Z,5.00
2023-01-02T23:59:34.649Z,4.90
